sensor_id;sensor_type;location;lat;lon;timestamp;temperature;humidity
210;DHT22;90;48.810;9.120;2022-07-12T00:00:25;17.20;79.50
210;DHT22;90;48.810;9.120;2022-07-12T00:02:52;17.30;79.20
210;DHT22;90;48.810;9.120;2022-07-12T00:05:19;17.30;78.90
210;DHT22;90;48.810;9.120;2022-07-12T00:07:46;17.20;79.30
210;DHT22;90;48.810;9.120;2022-07-12T00:10:13;17.20;79.50
210;DHT22;90;48.810;9.120;2022-07-12T00:12:41;17.10;79.70
210;DHT22;90;48.810;9.120;2022-07-12T00:15:09;17.00;80.40
210;DHT22;90;48.810;9.120;2022-07-12T00:17:37;17.00;80.40
210;DHT22;90;48.810;9.120;2022-07-12T00:20:06;16.90;80.70
210;DHT22;90;48.810;9.120;2022-07-12T00:22:33;17.00;80.60
210;DHT22;90;48.810;9.120;2022-07-12T00:25:00;17.00;80.50
210;DHT22;90;48.810;9.120;2022-07-12T00:27:27;17.00;80.40
210;DHT22;90;48.810;9.120;2022-07-12T00:29:55;16.90;80.40
210;DHT22;90;48.810;9.120;2022-07-12T00:32:22;16.80;80.60
210;DHT22;90;48.810;9.120;2022-07-12T00:34:50;16.90;80.80
210;DHT22;90;48.810;9.120;2022-07-12T00:37:17;16.90;81.00
210;DHT22;90;48.810;9.120;2022-07-12T00:39:45;16.90;80.70
210;DHT22;90;48.810;9.120;2022-07-12T00:42:12;16.90;80.90
210;DHT22;90;48.810;9.120;2022-07-12T00:44:40;16.90;81.00
210;DHT22;90;48.810;9.120;2022-07-12T00:47:07;16.90;80.50
210;DHT22;90;48.810;9.120;2022-07-12T00:49:34;16.80;81.10
210;DHT22;90;48.810;9.120;2022-07-12T00:52:03;16.90;80.90
210;DHT22;90;48.810;9.120;2022-07-12T00:54:30;16.90;80.90
210;DHT22;90;48.810;9.120;2022-07-12T00:56:58;16.90;80.70
210;DHT22;90;48.810;9.120;2022-07-12T00:59:25;16.90;80.90
210;DHT22;90;48.810;9.120;2022-07-12T01:01:52;16.80;81.40
210;DHT22;90;48.810;9.120;2022-07-12T01:04:19;16.90;81.50
210;DHT22;90;48.810;9.120;2022-07-12T01:06:46;16.90;81.50
210;DHT22;90;48.810;9.120;2022-07-12T01:09:14;16.90;81.20
210;DHT22;90;48.810;9.120;2022-07-12T01:11:41;17.00;80.90
210;DHT22;90;48.810;9.120;2022-07-12T01:14:10;17.00;80.90
210;DHT22;90;48.810;9.120;2022-07-12T01:16:38;16.90;81.00
210;DHT22;90;48.810;9.120;2022-07-12T01:19:06;16.80;81.80
210;DHT22;90;48.810;9.120;2022-07-12T01:21:37;16.80;81.50
210;DHT22;90;48.810;9.120;2022-07-12T01:24:06;16.80;81.60
210;DHT22;90;48.810;9.120;2022-07-12T01:26:35;16.80;81.50
210;DHT22;90;48.810;9.120;2022-07-12T01:29:03;16.80;81.60
210;DHT22;90;48.810;9.120;2022-07-12T01:31:31;16.60;82.10
210;DHT22;90;48.810;9.120;2022-07-12T01:34:00;16.50;82.80
210;DHT22;90;48.810;9.120;2022-07-12T01:36:28;16.50;82.60
210;DHT22;90;48.810;9.120;2022-07-12T01:38:55;16.40;82.70
210;DHT22;90;48.810;9.120;2022-07-12T01:41:24;16.40;82.70
210;DHT22;90;48.810;9.120;2022-07-12T01:43:51;16.40;83.00
210;DHT22;90;48.810;9.120;2022-07-12T01:46:18;16.30;83.00
210;DHT22;90;48.810;9.120;2022-07-12T01:48:45;16.30;83.10
210;DHT22;90;48.810;9.120;2022-07-12T01:51:12;16.50;82.60
210;DHT22;90;48.810;9.120;2022-07-12T01:53:39;16.50;82.10
210;DHT22;90;48.810;9.120;2022-07-12T01:56:06;16.50;82.30
210;DHT22;90;48.810;9.120;2022-07-12T01:58:36;16.50;82.20
210;DHT22;90;48.810;9.120;2022-07-12T02:01:04;16.40;82.50
210;DHT22;90;48.810;9.120;2022-07-12T02:03:34;16.40;82.40
210;DHT22;90;48.810;9.120;2022-07-12T02:06:01;16.40;82.20
210;DHT22;90;48.810;9.120;2022-07-12T02:08:28;16.30;82.60
210;DHT22;90;48.810;9.120;2022-07-12T02:10:55;16.30;82.60
210;DHT22;90;48.810;9.120;2022-07-12T02:13:22;16.40;82.30
210;DHT22;90;48.810;9.120;2022-07-12T02:15:51;16.40;82.60
210;DHT22;90;48.810;9.120;2022-07-12T02:18:18;16.50;82.10
210;DHT22;90;48.810;9.120;2022-07-12T02:20:45;16.60;81.50
210;DHT22;90;48.810;9.120;2022-07-12T02:23:12;16.50;82.00
210;DHT22;90;48.810;9.120;2022-07-12T02:25:39;16.40;82.30
210;DHT22;90;48.810;9.120;2022-07-12T02:28:06;16.30;82.50
210;DHT22;90;48.810;9.120;2022-07-12T02:30:33;16.40;82.10
210;DHT22;90;48.810;9.120;2022-07-12T02:33:02;16.50;81.80
210;DHT22;90;48.810;9.120;2022-07-12T02:35:29;16.50;80.90
210;DHT22;90;48.810;9.120;2022-07-12T02:37:56;16.40;81.40
210;DHT22;90;48.810;9.120;2022-07-12T02:40:23;16.30;82.00
210;DHT22;90;48.810;9.120;2022-07-12T02:43:07;16.20;82.50
210;DHT22;90;48.810;9.120;2022-07-12T02:45:38;16.10;82.90
210;DHT22;90;48.810;9.120;2022-07-12T02:48:07;16.00;83.50
210;DHT22;90;48.810;9.120;2022-07-12T02:50:36;15.90;83.70
210;DHT22;90;48.810;9.120;2022-07-12T02:53:04;15.90;84.00
210;DHT22;90;48.810;9.120;2022-07-12T02:55:31;15.90;84.20
210;DHT22;90;48.810;9.120;2022-07-12T02:57:58;15.80;84.00
210;DHT22;90;48.810;9.120;2022-07-12T03:00:25;15.70;84.30
210;DHT22;90;48.810;9.120;2022-07-12T03:02:52;15.90;83.80
210;DHT22;90;48.810;9.120;2022-07-12T03:05:21;15.90;83.40
210;DHT22;90;48.810;9.120;2022-07-12T03:07:48;15.90;83.80
210;DHT22;90;48.810;9.120;2022-07-12T03:10:15;15.90;83.50
210;DHT22;90;48.810;9.120;2022-07-12T03:12:43;15.90;83.60
210;DHT22;90;48.810;9.120;2022-07-12T03:15:10;15.90;83.70
210;DHT22;90;48.810;9.120;2022-07-12T03:17:37;15.70;83.90
210;DHT22;90;48.810;9.120;2022-07-12T03:20:06;15.70;84.70
210;DHT22;90;48.810;9.120;2022-07-12T03:22:36;15.50;85.10
210;DHT22;90;48.810;9.120;2022-07-12T03:25:03;15.50;85.10
210;DHT22;90;48.810;9.120;2022-07-12T03:27:30;15.50;85.40
210;DHT22;90;48.810;9.120;2022-07-12T03:29:58;15.70;84.80
210;DHT22;90;48.810;9.120;2022-07-12T03:32:25;15.60;84.70
210;DHT22;90;48.810;9.120;2022-07-12T03:34:55;15.60;85.00
210;DHT22;90;48.810;9.120;2022-07-12T03:37:22;15.60;85.20
210;DHT22;90;48.810;9.120;2022-07-12T03:39:51;15.70;84.60
210;DHT22;90;48.810;9.120;2022-07-12T03:42:19;15.60;84.90
210;DHT22;90;48.810;9.120;2022-07-12T03:44:46;15.70;84.80
210;DHT22;90;48.810;9.120;2022-07-12T03:47:13;15.90;83.40
210;DHT22;90;48.810;9.120;2022-07-12T03:49:40;16.00;83.00
210;DHT22;90;48.810;9.120;2022-07-12T03:52:07;15.90;83.20
210;DHT22;90;48.810;9.120;2022-07-12T03:54:34;15.70;83.70
210;DHT22;90;48.810;9.120;2022-07-12T03:57:03;15.60;84.60
210;DHT22;90;48.810;9.120;2022-07-12T03:59:50;15.70;84.40
210;DHT22;90;48.810;9.120;2022-07-12T04:02:17;15.80;83.80
210;DHT22;90;48.810;9.120;2022-07-12T04:04:44;15.80;83.90
210;DHT22;90;48.810;9.120;2022-07-12T04:07:11;15.70;84.40
210;DHT22;90;48.810;9.120;2022-07-12T04:09:39;15.60;85.40
210;DHT22;90;48.810;9.120;2022-07-12T04:12:08;15.70;84.90
210;DHT22;90;48.810;9.120;2022-07-12T04:14:36;15.80;84.60
210;DHT22;90;48.810;9.120;2022-07-12T04:17:04;15.70;84.70
210;DHT22;90;48.810;9.120;2022-07-12T04:19:34;15.80;84.80
210;DHT22;90;48.810;9.120;2022-07-12T04:22:01;15.70;84.80
210;DHT22;90;48.810;9.120;2022-07-12T04:24:29;15.70;85.20
210;DHT22;90;48.810;9.120;2022-07-12T04:26:56;16.00;85.40
210;DHT22;90;48.810;9.120;2022-07-12T04:29:24;16.10;84.10
210;DHT22;90;48.810;9.120;2022-07-12T04:31:51;16.10;83.90
210;DHT22;90;48.810;9.120;2022-07-12T04:34:18;16.00;84.20
210;DHT22;90;48.810;9.120;2022-07-12T04:36:46;16.10;83.80
210;DHT22;90;48.810;9.120;2022-07-12T04:39:13;16.10;84.10
210;DHT22;90;48.810;9.120;2022-07-12T04:41:40;16.00;84.50
210;DHT22;90;48.810;9.120;2022-07-12T04:44:08;16.20;83.90
210;DHT22;90;48.810;9.120;2022-07-12T04:46:39;16.20;83.30
210;DHT22;90;48.810;9.120;2022-07-12T04:49:06;16.20;83.70
210;DHT22;90;48.810;9.120;2022-07-12T04:51:33;16.10;84.00
210;DHT22;90;48.810;9.120;2022-07-12T04:54:00;16.10;84.60
210;DHT22;90;48.810;9.120;2022-07-12T04:56:27;16.10;84.90
210;DHT22;90;48.810;9.120;2022-07-12T04:58:55;16.40;85.00
210;DHT22;90;48.810;9.120;2022-07-12T05:01:22;16.70;83.10
210;DHT22;90;48.810;9.120;2022-07-12T05:03:51;16.80;82.30
210;DHT22;90;48.810;9.120;2022-07-12T05:06:18;16.80;82.40
210;DHT22;90;48.810;9.120;2022-07-12T05:08:45;16.80;82.50
210;DHT22;90;48.810;9.120;2022-07-12T05:11:12;16.80;82.60
210;DHT22;90;48.810;9.120;2022-07-12T05:13:39;17.00;82.00
210;DHT22;90;48.810;9.120;2022-07-12T05:16:07;17.10;81.60
210;DHT22;90;48.810;9.120;2022-07-12T05:18:35;17.20;81.10
210;DHT22;90;48.810;9.120;2022-07-12T05:21:03;17.20;80.80
210;DHT22;90;48.810;9.120;2022-07-12T05:23:30;17.30;80.80
210;DHT22;90;48.810;9.120;2022-07-12T05:25:58;17.40;80.30
210;DHT22;90;48.810;9.120;2022-07-12T05:28:25;17.60;79.50
210;DHT22;90;48.810;9.120;2022-07-12T05:30:52;17.70;78.90
210;DHT22;90;48.810;9.120;2022-07-12T05:33:19;17.80;78.60
210;DHT22;90;48.810;9.120;2022-07-12T05:35:47;17.90;78.10
210;DHT22;90;48.810;9.120;2022-07-12T05:38:15;18.00;78.00
210;DHT22;90;48.810;9.120;2022-07-12T05:40:43;18.10;77.90
210;DHT22;90;48.810;9.120;2022-07-12T05:43:10;18.20;77.60
210;DHT22;90;48.810;9.120;2022-07-12T05:45:37;18.30;77.50
210;DHT22;90;48.810;9.120;2022-07-12T05:48:04;18.30;77.60
210;DHT22;90;48.810;9.120;2022-07-12T05:50:31;18.40;77.40
210;DHT22;90;48.810;9.120;2022-07-12T05:52:58;18.40;76.80
210;DHT22;90;48.810;9.120;2022-07-12T05:55:44;18.50;76.70
210;DHT22;90;48.810;9.120;2022-07-12T05:58:12;18.60;76.40
210;DHT22;90;48.810;9.120;2022-07-12T06:00:39;18.70;76.20
210;DHT22;90;48.810;9.120;2022-07-12T06:03:06;18.80;75.90
210;DHT22;90;48.810;9.120;2022-07-12T06:05:33;18.80;75.70
210;DHT22;90;48.810;9.120;2022-07-12T06:08:00;18.80;75.30
210;DHT22;90;48.810;9.120;2022-07-12T06:10:27;18.80;75.20
210;DHT22;90;48.810;9.120;2022-07-12T06:12:57;18.90;75.30
210;DHT22;90;48.810;9.120;2022-07-12T06:15:24;19.00;75.00
210;DHT22;90;48.810;9.120;2022-07-12T06:17:51;18.90;74.80
210;DHT22;90;48.810;9.120;2022-07-12T06:20:19;19.00;74.40
210;DHT22;90;48.810;9.120;2022-07-12T06:22:46;19.10;74.20
210;DHT22;90;48.810;9.120;2022-07-12T06:25:13;19.20;73.80
210;DHT22;90;48.810;9.120;2022-07-12T06:27:40;19.00;71.90
210;DHT22;90;48.810;9.120;2022-07-12T06:30:10;19.00;72.40
210;DHT22;90;48.810;9.120;2022-07-12T06:32:37;19.10;72.20
210;DHT22;90;48.810;9.120;2022-07-12T06:35:05;19.20;72.00
210;DHT22;90;48.810;9.120;2022-07-12T06:37:32;19.40;72.00
210;DHT22;90;48.810;9.120;2022-07-12T06:39:59;19.50;71.90
210;DHT22;90;48.810;9.120;2022-07-12T06:42:26;19.50;72.10
210;DHT22;90;48.810;9.120;2022-07-12T06:44:53;19.60;71.80
210;DHT22;90;48.810;9.120;2022-07-12T06:47:22;19.80;71.90
210;DHT22;90;48.810;9.120;2022-07-12T06:49:49;20.00;70.20
210;DHT22;90;48.810;9.120;2022-07-12T06:52:16;20.10;69.30
210;DHT22;90;48.810;9.120;2022-07-12T06:54:43;20.10;69.40
210;DHT22;90;48.810;9.120;2022-07-12T06:57:10;20.10;69.20
210;DHT22;90;48.810;9.120;2022-07-12T06:59:37;20.20;68.70
210;DHT22;90;48.810;9.120;2022-07-12T07:02:05;20.20;68.30
210;DHT22;90;48.810;9.120;2022-07-12T07:04:33;20.20;67.60
210;DHT22;90;48.810;9.120;2022-07-12T07:07:01;20.20;66.70
210;DHT22;90;48.810;9.120;2022-07-12T07:09:28;20.10;66.50
210;DHT22;90;48.810;9.120;2022-07-12T07:11:55;20.10;66.70
210;DHT22;90;48.810;9.120;2022-07-12T07:14:23;20.20;66.60
210;DHT22;90;48.810;9.120;2022-07-12T07:16:52;20.10;65.60
210;DHT22;90;48.810;9.120;2022-07-12T07:19:20;20.10;65.80
210;DHT22;90;48.810;9.120;2022-07-12T07:21:50;20.20;66.00
210;DHT22;90;48.810;9.120;2022-07-12T07:24:20;20.30;66.80
210;DHT22;90;48.810;9.120;2022-07-12T07:26:48;20.40;66.00
210;DHT22;90;48.810;9.120;2022-07-12T07:29:15;20.50;65.90
210;DHT22;90;48.810;9.120;2022-07-12T07:32:00;20.60;67.20
210;DHT22;90;48.810;9.120;2022-07-12T07:34:27;20.80;65.30
210;DHT22;90;48.810;9.120;2022-07-12T07:36:56;20.80;64.40
210;DHT22;90;48.810;9.120;2022-07-12T07:39:23;20.80;65.10
210;DHT22;90;48.810;9.120;2022-07-12T07:41:50;20.80;65.70
210;DHT22;90;48.810;9.120;2022-07-12T07:44:18;20.60;63.30
210;DHT22;90;48.810;9.120;2022-07-12T07:46:45;20.80;63.60
210;DHT22;90;48.810;9.120;2022-07-12T07:49:12;20.90;62.70
210;DHT22;90;48.810;9.120;2022-07-12T07:51:41;21.00;62.60
210;DHT22;90;48.810;9.120;2022-07-12T07:54:09;21.10;62.20
210;DHT22;90;48.810;9.120;2022-07-12T07:56:36;21.10;61.40
210;DHT22;90;48.810;9.120;2022-07-12T07:59:04;21.20;61.40
210;DHT22;90;48.810;9.120;2022-07-12T08:01:31;21.20;61.20
210;DHT22;90;48.810;9.120;2022-07-12T08:04:12;21.30;60.90
210;DHT22;90;48.810;9.120;2022-07-12T08:06:41;21.40;63.90
210;DHT22;90;48.810;9.120;2022-07-12T08:09:11;21.50;61.50
210;DHT22;90;48.810;9.120;2022-07-12T08:11:38;21.40;60.80
210;DHT22;90;48.810;9.120;2022-07-12T08:14:06;21.50;62.20
210;DHT22;90;48.810;9.120;2022-07-12T08:16:34;21.50;62.60
210;DHT22;90;48.810;9.120;2022-07-12T08:19:02;21.70;62.60
210;DHT22;90;48.810;9.120;2022-07-12T08:21:30;21.70;59.90
210;DHT22;90;48.810;9.120;2022-07-12T08:23:57;21.70;63.00
210;DHT22;90;48.810;9.120;2022-07-12T08:26:31;22.10;60.70
210;DHT22;90;48.810;9.120;2022-07-12T08:28:59;22.40;58.80
210;DHT22;90;48.810;9.120;2022-07-12T08:31:26;22.40;59.10
210;DHT22;90;48.810;9.120;2022-07-12T08:33:53;22.60;59.50
210;DHT22;90;48.810;9.120;2022-07-12T08:36:20;22.90;56.90
210;DHT22;90;48.810;9.120;2022-07-12T08:38:47;22.80;55.80
210;DHT22;90;48.810;9.120;2022-07-12T08:41:15;22.30;58.70
210;DHT22;90;48.810;9.120;2022-07-12T08:43:43;22.40;58.30
210;DHT22;90;48.810;9.120;2022-07-12T08:46:11;22.50;58.50
210;DHT22;90;48.810;9.120;2022-07-12T08:48:40;22.10;57.90
210;DHT22;90;48.810;9.120;2022-07-12T08:51:08;22.00;59.50
210;DHT22;90;48.810;9.120;2022-07-12T08:53:36;22.30;59.10
210;DHT22;90;48.810;9.120;2022-07-12T08:56:04;22.50;58.60
210;DHT22;90;48.810;9.120;2022-07-12T08:58:32;22.70;58.10
210;DHT22;90;48.810;9.120;2022-07-12T09:01:03;22.90;57.70
210;DHT22;90;48.810;9.120;2022-07-12T09:03:34;23.10;57.50
210;DHT22;90;48.810;9.120;2022-07-12T09:06:05;23.20;57.20
210;DHT22;90;48.810;9.120;2022-07-12T09:08:32;23.00;56.50
210;DHT22;90;48.810;9.120;2022-07-12T09:11:00;22.70;57.60
210;DHT22;90;48.810;9.120;2022-07-12T09:13:47;22.90;57.50
210;DHT22;90;48.810;9.120;2022-07-12T09:16:18;23.10;56.70
210;DHT22;90;48.810;9.120;2022-07-12T09:18:46;23.00;55.40
210;DHT22;90;48.810;9.120;2022-07-12T09:21:22;22.60;55.20
210;DHT22;90;48.810;9.120;2022-07-12T09:23:54;22.80;55.60
210;DHT22;90;48.810;9.120;2022-07-12T09:26:21;22.90;55.60
210;DHT22;90;48.810;9.120;2022-07-12T09:28:50;23.00;55.40
210;DHT22;90;48.810;9.120;2022-07-12T09:31:20;22.80;55.30
210;DHT22;90;48.810;9.120;2022-07-12T09:33:59;22.80;55.20
210;DHT22;90;48.810;9.120;2022-07-12T09:36:54;22.80;54.20
210;DHT22;90;48.810;9.120;2022-07-12T09:39:22;23.00;54.90
210;DHT22;90;48.810;9.120;2022-07-12T09:41:51;22.90;55.00
210;DHT22;90;48.810;9.120;2022-07-12T09:44:25;22.80;55.40
210;DHT22;90;48.810;9.120;2022-07-12T09:46:58;22.70;56.10
210;DHT22;90;48.810;9.120;2022-07-12T09:49:28;22.70;56.20
210;DHT22;90;48.810;9.120;2022-07-12T09:51:59;22.90;56.00
210;DHT22;90;48.810;9.120;2022-07-12T09:54:27;23.00;55.50
210;DHT22;90;48.810;9.120;2022-07-12T09:56:57;23.20;55.20
210;DHT22;90;48.810;9.120;2022-07-12T09:59:28;23.10;55.40
210;DHT22;90;48.810;9.120;2022-07-12T10:01:57;23.20;55.50
210;DHT22;90;48.810;9.120;2022-07-12T10:04:30;23.10;56.10
210;DHT22;90;48.810;9.120;2022-07-12T10:06:57;23.10;56.20
210;DHT22;90;48.810;9.120;2022-07-12T10:09:25;23.20;56.10
210;DHT22;90;48.810;9.120;2022-07-12T10:11:53;23.30;55.60
210;DHT22;90;48.810;9.120;2022-07-12T10:14:21;23.40;55.50
210;DHT22;90;48.810;9.120;2022-07-12T10:16:51;23.60;55.50
210;DHT22;90;48.810;9.120;2022-07-12T10:19:24;23.70;55.70
210;DHT22;90;48.810;9.120;2022-07-12T10:21:53;23.90;55.50
210;DHT22;90;48.810;9.120;2022-07-12T10:24:48;23.90;53.70
210;DHT22;90;48.810;9.120;2022-07-12T10:27:32;23.90;54.20
210;DHT22;90;48.810;9.120;2022-07-12T10:30:15;23.90;54.00
210;DHT22;90;48.810;9.120;2022-07-12T10:32:44;23.90;54.20
210;DHT22;90;48.810;9.120;2022-07-12T10:35:16;24.00;54.30
210;DHT22;90;48.810;9.120;2022-07-12T10:38:14;23.80;54.80
210;DHT22;90;48.810;9.120;2022-07-12T10:40:44;23.90;54.50
210;DHT22;90;48.810;9.120;2022-07-12T10:43:22;23.90;54.10
210;DHT22;90;48.810;9.120;2022-07-12T10:46:23;23.90;53.20
210;DHT22;90;48.810;9.120;2022-07-12T10:49:24;23.80;53.30
210;DHT22;90;48.810;9.120;2022-07-12T10:52:16;23.60;53.20
210;DHT22;90;48.810;9.120;2022-07-12T10:57:38;23.60;53.70
210;DHT22;90;48.810;9.120;2022-07-12T11:00:07;23.70;54.10
210;DHT22;90;48.810;9.120;2022-07-12T11:02:35;23.70;52.80
210;DHT22;90;48.810;9.120;2022-07-12T11:05:03;23.60;54.10
210;DHT22;90;48.810;9.120;2022-07-12T11:07:33;23.60;54.00
210;DHT22;90;48.810;9.120;2022-07-12T11:10:01;23.60;52.60
210;DHT22;90;48.810;9.120;2022-07-12T11:12:28;23.80;51.90
210;DHT22;90;48.810;9.120;2022-07-12T11:14:55;23.80;51.00
210;DHT22;90;48.810;9.120;2022-07-12T11:17:25;23.70;51.50
210;DHT22;90;48.810;9.120;2022-07-12T11:20:04;23.70;52.40
210;DHT22;90;48.810;9.120;2022-07-12T11:22:33;23.90;53.40
210;DHT22;90;48.810;9.120;2022-07-12T11:25:02;24.00;53.00
210;DHT22;90;48.810;9.120;2022-07-12T11:27:30;24.10;51.20
210;DHT22;90;48.810;9.120;2022-07-12T11:29:58;24.10;50.30
210;DHT22;90;48.810;9.120;2022-07-12T11:32:34;24.10;52.30
210;DHT22;90;48.810;9.120;2022-07-12T11:35:01;24.20;51.50
210;DHT22;90;48.810;9.120;2022-07-12T11:37:28;24.10;52.30
210;DHT22;90;48.810;9.120;2022-07-12T11:39:57;24.30;50.80
210;DHT22;90;48.810;9.120;2022-07-12T11:42:25;24.40;51.10
210;DHT22;90;48.810;9.120;2022-07-12T11:44:52;24.40;51.60
210;DHT22;90;48.810;9.120;2022-07-12T11:47:22;24.50;52.80
210;DHT22;90;48.810;9.120;2022-07-12T11:49:51;24.60;51.60
210;DHT22;90;48.810;9.120;2022-07-12T11:52:19;24.50;50.90
210;DHT22;90;48.810;9.120;2022-07-12T11:54:48;24.40;51.30
210;DHT22;90;48.810;9.120;2022-07-12T11:57:19;24.50;52.40
210;DHT22;90;48.810;9.120;2022-07-12T11:59:47;24.60;51.40
210;DHT22;90;48.810;9.120;2022-07-12T12:02:15;24.70;51.80
210;DHT22;90;48.810;9.120;2022-07-12T12:04:45;24.90;51.90
210;DHT22;90;48.810;9.120;2022-07-12T12:07:14;25.00;50.70
210;DHT22;90;48.810;9.120;2022-07-12T12:09:58;25.00;50.70
210;DHT22;90;48.810;9.120;2022-07-12T12:12:27;25.10;50.40
210;DHT22;90;48.810;9.120;2022-07-12T12:14:54;25.10;49.70
210;DHT22;90;48.810;9.120;2022-07-12T12:17:21;25.30;49.50
210;DHT22;90;48.810;9.120;2022-07-12T12:19:49;25.30;47.90
210;DHT22;90;48.810;9.120;2022-07-12T12:22:32;25.30;47.70
210;DHT22;90;48.810;9.120;2022-07-12T12:25:01;25.30;47.70
210;DHT22;90;48.810;9.120;2022-07-12T12:27:31;25.20;48.90
210;DHT22;90;48.810;9.120;2022-07-12T12:29:58;25.40;50.80
210;DHT22;90;48.810;9.120;2022-07-12T12:32:43;25.60;47.80
210;DHT22;90;48.810;9.120;2022-07-12T12:35:12;25.40;48.20
210;DHT22;90;48.810;9.120;2022-07-12T12:37:39;25.40;49.10
210;DHT22;90;48.810;9.120;2022-07-12T12:40:07;25.50;49.60
210;DHT22;90;48.810;9.120;2022-07-12T12:42:38;25.50;48.60
210;DHT22;90;48.810;9.120;2022-07-12T12:45:06;25.60;48.80
210;DHT22;90;48.810;9.120;2022-07-12T12:47:57;25.70;49.60
210;DHT22;90;48.810;9.120;2022-07-12T12:50:41;25.90;49.40
210;DHT22;90;48.810;9.120;2022-07-12T12:53:12;26.00;49.20
210;DHT22;90;48.810;9.120;2022-07-12T12:55:41;26.10;48.50
210;DHT22;90;48.810;9.120;2022-07-12T12:58:10;26.10;48.00
210;DHT22;90;48.810;9.120;2022-07-12T13:00:39;26.00;48.50
210;DHT22;90;48.810;9.120;2022-07-12T13:03:06;26.10;47.90
210;DHT22;90;48.810;9.120;2022-07-12T13:05:34;25.90;47.30
210;DHT22;90;48.810;9.120;2022-07-12T13:08:04;25.90;49.00
210;DHT22;90;48.810;9.120;2022-07-12T13:10:32;25.80;47.30
210;DHT22;90;48.810;9.120;2022-07-12T13:13:00;25.50;46.50
210;DHT22;90;48.810;9.120;2022-07-12T13:15:29;25.30;48.20
210;DHT22;90;48.810;9.120;2022-07-12T13:17:57;25.60;47.70
210;DHT22;90;48.810;9.120;2022-07-12T13:20:25;25.80;47.40
210;DHT22;90;48.810;9.120;2022-07-12T13:22:53;25.90;46.20
210;DHT22;90;48.810;9.120;2022-07-12T13:25:20;26.10;45.30
210;DHT22;90;48.810;9.120;2022-07-12T13:27:47;26.30;45.30
210;DHT22;90;48.810;9.120;2022-07-12T13:30:16;26.30;44.50
210;DHT22;90;48.810;9.120;2022-07-12T13:32:44;26.40;44.20
210;DHT22;90;48.810;9.120;2022-07-12T13:35:13;26.50;43.60
210;DHT22;90;48.810;9.120;2022-07-12T13:37:41;26.40;43.20
210;DHT22;90;48.810;9.120;2022-07-12T13:40:09;26.40;43.00
210;DHT22;90;48.810;9.120;2022-07-12T13:42:44;26.50;43.50
210;DHT22;90;48.810;9.120;2022-07-12T13:45:13;26.60;43.10
210;DHT22;90;48.810;9.120;2022-07-12T13:47:41;26.70;43.10
210;DHT22;90;48.810;9.120;2022-07-12T13:50:11;26.80;43.30
210;DHT22;90;48.810;9.120;2022-07-12T13:52:39;26.70;43.30
210;DHT22;90;48.810;9.120;2022-07-12T13:55:07;26.90;43.60
210;DHT22;90;48.810;9.120;2022-07-12T13:57:35;27.10;44.00
210;DHT22;90;48.810;9.120;2022-07-12T14:00:04;27.00;43.40
210;DHT22;90;48.810;9.120;2022-07-12T14:02:34;26.80;43.60
210;DHT22;90;48.810;9.120;2022-07-12T14:05:02;26.70;43.40
210;DHT22;90;48.810;9.120;2022-07-12T14:07:31;26.70;44.00
210;DHT22;90;48.810;9.120;2022-07-12T14:09:59;26.80;45.60
210;DHT22;90;48.810;9.120;2022-07-12T14:12:26;27.10;46.10
210;DHT22;90;48.810;9.120;2022-07-12T14:14:53;27.20;43.50
210;DHT22;90;48.810;9.120;2022-07-12T14:17:38;27.40;44.90
210;DHT22;90;48.810;9.120;2022-07-12T14:20:06;27.50;42.60
210;DHT22;90;48.810;9.120;2022-07-12T14:22:36;27.50;42.90
210;DHT22;90;48.810;9.120;2022-07-12T14:25:04;27.50;42.00
210;DHT22;90;48.810;9.120;2022-07-12T14:27:31;27.40;41.60
210;DHT22;90;48.810;9.120;2022-07-12T14:29:58;27.30;41.20
210;DHT22;90;48.810;9.120;2022-07-12T14:32:25;27.40;41.20
210;DHT22;90;48.810;9.120;2022-07-12T14:34:52;27.60;41.00
210;DHT22;90;48.810;9.120;2022-07-12T14:37:19;27.80;41.10
210;DHT22;90;48.810;9.120;2022-07-12T14:39:48;27.60;40.30
210;DHT22;90;48.810;9.120;2022-07-12T14:42:15;27.60;41.50
210;DHT22;90;48.810;9.120;2022-07-12T14:44:42;27.50;40.90
210;DHT22;90;48.810;9.120;2022-07-12T14:47:09;27.70;40.50
210;DHT22;90;48.810;9.120;2022-07-12T14:49:36;27.80;40.50
210;DHT22;90;48.810;9.120;2022-07-12T14:52:04;28.00;40.70
210;DHT22;90;48.810;9.120;2022-07-12T14:54:32;27.80;39.40
210;DHT22;90;48.810;9.120;2022-07-12T14:57:01;27.60;39.30
210;DHT22;90;48.810;9.120;2022-07-12T14:59:28;27.50;39.20
210;DHT22;90;48.810;9.120;2022-07-12T15:01:55;27.60;40.00
210;DHT22;90;48.810;9.120;2022-07-12T15:04:23;27.90;40.30
210;DHT22;90;48.810;9.120;2022-07-12T15:06:50;28.20;39.60
210;DHT22;90;48.810;9.120;2022-07-12T15:09:17;28.30;39.90
210;DHT22;90;48.810;9.120;2022-07-12T15:11:44;28.30;40.20
210;DHT22;90;48.810;9.120;2022-07-12T15:14:12;28.20;40.80
210;DHT22;90;48.810;9.120;2022-07-12T15:16:39;28.20;40.60
210;DHT22;90;48.810;9.120;2022-07-12T15:19:06;28.40;41.60
210;DHT22;90;48.810;9.120;2022-07-12T15:21:33;28.40;38.80
210;DHT22;90;48.810;9.120;2022-07-12T15:24:01;28.30;39.40
210;DHT22;90;48.810;9.120;2022-07-12T15:26:28;28.50;39.10
210;DHT22;90;48.810;9.120;2022-07-12T15:28:58;28.40;38.00
210;DHT22;90;48.810;9.120;2022-07-12T15:31:28;28.00;38.30
210;DHT22;90;48.810;9.120;2022-07-12T15:33:56;28.00;39.50
210;DHT22;90;48.810;9.120;2022-07-12T15:36:23;28.20;38.60
210;DHT22;90;48.810;9.120;2022-07-12T15:38:50;28.30;38.40
210;DHT22;90;48.810;9.120;2022-07-12T15:41:17;28.20;38.30
210;DHT22;90;48.810;9.120;2022-07-12T15:43:45;28.30;38.60
210;DHT22;90;48.810;9.120;2022-07-12T15:46:12;28.50;39.40
210;DHT22;90;48.810;9.120;2022-07-12T15:48:40;28.60;38.70
210;DHT22;90;48.810;9.120;2022-07-12T15:51:07;28.70;38.10
210;DHT22;90;48.810;9.120;2022-07-12T15:53:36;28.80;37.60
210;DHT22;90;48.810;9.120;2022-07-12T15:56:05;28.70;37.70
210;DHT22;90;48.810;9.120;2022-07-12T15:58:34;28.90;38.60
210;DHT22;90;48.810;9.120;2022-07-12T16:01:02;28.70;38.10
210;DHT22;90;48.810;9.120;2022-07-12T16:03:30;28.70;38.60
210;DHT22;90;48.810;9.120;2022-07-12T16:06:01;28.60;39.20
210;DHT22;90;48.810;9.120;2022-07-12T16:08:28;29.00;38.20
210;DHT22;90;48.810;9.120;2022-07-12T16:10:56;29.20;38.70
210;DHT22;90;48.810;9.120;2022-07-12T16:13:23;29.30;38.50
210;DHT22;90;48.810;9.120;2022-07-12T16:15:50;29.40;38.30
210;DHT22;90;48.810;9.120;2022-07-12T16:18:17;29.50;38.60
210;DHT22;90;48.810;9.120;2022-07-12T16:20:45;29.40;37.80
210;DHT22;90;48.810;9.120;2022-07-12T16:23:13;29.30;38.80
210;DHT22;90;48.810;9.120;2022-07-12T16:25:40;29.30;38.00
210;DHT22;90;48.810;9.120;2022-07-12T16:28:07;29.40;38.00
210;DHT22;90;48.810;9.120;2022-07-12T16:30:35;29.50;37.80
210;DHT22;90;48.810;9.120;2022-07-12T16:33:03;29.70;37.30
210;DHT22;90;48.810;9.120;2022-07-12T16:35:30;29.60;37.00
210;DHT22;90;48.810;9.120;2022-07-12T16:37:58;29.80;37.50
210;DHT22;90;48.810;9.120;2022-07-12T16:40:26;30.00;37.70
210;DHT22;90;48.810;9.120;2022-07-12T16:42:53;30.10;37.20
210;DHT22;90;48.810;9.120;2022-07-12T16:45:22;30.00;35.70
210;DHT22;90;48.810;9.120;2022-07-12T16:47:52;29.60;35.40
210;DHT22;90;48.810;9.120;2022-07-12T16:50:19;28.90;36.50
210;DHT22;90;48.810;9.120;2022-07-12T16:52:46;28.80;36.80
210;DHT22;90;48.810;9.120;2022-07-12T16:55:13;28.70;37.20
210;DHT22;90;48.810;9.120;2022-07-12T16:57:42;28.80;37.40
210;DHT22;90;48.810;9.120;2022-07-12T17:00:10;28.90;36.80
210;DHT22;90;48.810;9.120;2022-07-12T17:02:40;29.10;36.10
210;DHT22;90;48.810;9.120;2022-07-12T17:05:08;29.50;36.40